Time;durP1;ratioP1;P1;durP2;ratioP2;P2;SDS_P1;SDS_P2;PMS_P1;PMS_P2;Temp;Humidity;BMP_temperature;BMP_pressure;BME280_temperature;BME280_humidity;BME280_pressure;Samples;Min_cycle;Max_cycle;Signal;HPM_P1;HPM_P2
2023/10/03 00:03:08;;;;;;;31.13;14.63;;;20.50;1.00;;;;;;20473290;28;20082;-43
2023/10/03 00:13:10;;;;;;;33.10;14.57;;;20.30;1.00;;;;;;20476696;28;20513;-43
2023/10/03 00:23:11;;;;;;;35.38;16.25;;;20.20;1.00;;;;;;20474530;28;20035;-43
2023/10/03 00:33:12;;;;;;;33.37;15.87;;;20.20;1.00;;;;;;20474297;28;20058;-43
2023/10/03 00:43:13;;;;;;;33.47;15.50;;;20.20;1.00;;;;;;20476004;28;20043;-43
2023/10/03 00:53:15;;;;;;;35.25;16.60;;;19.90;1.00;;;;;;20475960;28;20066;-43
2023/10/03 01:03:31;;;;;;;35.30;16.10;;;19.90;1.00;;;;;;20468605;28;20490;-43
2023/10/03 01:13:32;;;;;;;35.55;16.88;;;19.80;1.00;;;;;;20464819;28;20430;-43
2023/10/03 01:23:37;;;;;;;33.40;16.05;;;19.80;1.00;;;;;;20471661;28;20047;-43
2023/10/03 01:33:39;;;;;;;39.35;17.52;;;19.70;1.00;;;;;;20483019;28;20042;-43
2023/10/03 01:43:43;;;;;;;42.22;16.48;;;19.60;1.00;;;;;;20471109;28;20077;-43
2023/10/03 01:53:44;;;;;;;37.22;16.15;;;19.60;1.00;;;;;;20471505;28;20058;-43
2023/10/03 02:03:45;;;;;;;37.28;17.10;;;19.50;1.00;;;;;;20468726;28;20398;-43
2023/10/03 02:13:46;;;;;;;35.95;16.73;;;19.60;1.00;;;;;;20480987;28;20117;-43
2023/10/03 02:23:48;;;;;;;35.75;16.50;;;19.50;1.00;;;;;;20481063;28;20090;-43
2023/10/03 02:33:49;;;;;;;33.67;15.00;;;19.50;1.00;;;;;;20498359;28;20585;-42
2023/10/03 02:43:51;;;;;;;30.42;14.68;;;19.50;1.00;;;;;;20499030;28;20039;-43
2023/10/03 02:53:52;;;;;;;31.15;13.80;;;19.60;1.00;;;;;;20488351;28;20129;-43
2023/10/03 03:03:52;;;;;;;29.50;13.30;;;19.60;1.00;;;;;;20489551;28;20695;-42
2023/10/03 03:13:53;;;;;;;29.35;12.55;;;19.60;1.00;;;;;;20493598;28;20042;-43
2023/10/03 03:23:56;;;;;;;21.98;9.40;;;19.70;1.00;;;;;;20486465;28;20050;-43
2023/10/03 03:33:57;;;;;;;19.50;8.38;;;19.90;1.00;;;;;;20488844;28;20055;-43
2023/10/03 03:43:59;;;;;;;15.40;6.32;;;20.10;1.00;;;;;;20492710;28;20125;-42
2023/10/03 03:54:00;;;;;;;16.70;6.85;;;20.20;1.00;;;;;;20498679;28;20541;-43
2023/10/03 04:04:03;;;;;;;12.88;5.93;;;20.00;1.00;;;;;;20488006;28;20479;-43
2023/10/03 04:14:05;;;;;;;17.75;6.40;;;19.90;1.00;;;;;;20499628;28;20677;-43
2023/10/03 04:24:06;;;;;;;16.02;6.28;;;19.70;1.00;;;;;;20489682;28;20081;-42
2023/10/03 04:34:09;;;;;;;21.75;6.47;;;19.60;1.00;;;;;;20481459;28;20722;-42
2023/10/03 04:44:14;;;;;;;13.80;5.47;;;19.40;1.00;;;;;;20488953;28;20122;-43
2023/10/03 04:54:16;;;;;;;11.90;4.97;;;19.30;1.00;;;;;;20482367;28;20545;-43
2023/10/03 05:04:16;;;;;;;12.25;5.05;;;19.10;1.00;;;;;;20480108;28;20069;-43
2023/10/03 05:14:17;;;;;;;11.18;4.90;;;19.10;1.00;;;;;;20481533;28;20047;-43
2023/10/03 05:24:19;;;;;;;10.45;4.20;;;19.10;1.00;;;;;;20485164;28;20043;-41
2023/10/03 05:34:22;;;;;;;9.45;3.78;;;19.10;1.00;;;;;;20460148;28;20085;-43
2023/10/03 05:44:23;;;;;;;9.77;3.90;;;19.10;1.00;;;;;;20490872;28;20036;-43
2023/10/03 05:54:25;;;;;;;10.07;3.63;;;19.10;1.00;;;;;;20496531;28;20134;-43
2023/10/03 06:04:26;;;;;;;7.75;3.58;;;19.00;1.00;;;;;;20497096;28;20047;-42
2023/10/03 06:14:27;;;;;;;10.75;3.97;;;19.10;1.00;;;;;;20505512;28;20165;-43
2023/10/03 06:24:28;;;;;;;11.35;4.43;;;19.00;1.00;;;;;;20508486;28;20042;-42
2023/10/03 06:34:28;;;;;;;8.00;2.85;;;18.90;1.00;;;;;;20497332;28;20054;-43
2023/10/03 06:44:29;;;;;;;5.00;1.60;;;18.90;1.00;;;;;;20499283;28;20397;-43
2023/10/03 06:54:29;;;;;;;3.55;1.40;;;18.90;1.00;;;;;;20497456;28;20585;-43
2023/10/03 07:04:30;;;;;;;5.60;1.85;;;18.60;1.00;;;;;;20499644;28;20407;-43
2023/10/03 07:14:31;;;;;;;7.63;2.25;;;18.70;1.00;;;;;;20498079;28;20054;-42
2023/10/03 07:24:31;;;;;;;7.10;1.90;;;18.60;1.00;;;;;;20494243;28;20067;-42
2023/10/03 07:34:32;;;;;;;5.88;1.58;;;18.50;1.00;;;;;;20488962;28;20054;-43
2023/10/03 07:44:32;;;;;;;5.65;1.30;;;18.10;15.60;;;;;;20495617;28;20499;-42
2023/10/03 07:54:36;;;;;;;8.98;1.42;;;17.80;27.90;;;;;;20495157;28;20105;-42
2023/10/03 08:04:38;;;;;;;5.80;1.35;;;17.70;41.10;;;;;;20490492;28;22367;-42
2023/10/03 08:14:39;;;;;;;6.07;1.98;;;17.50;21.60;;;;;;20493248;28;20134;-42
2023/10/03 08:24:43;;;;;;;6.45;1.55;;;17.10;7.70;;;;;;20491858;28;20035;-42
2023/10/03 08:34:44;;;;;;;20.48;2.55;;;16.90;21.70;;;;;;20495438;28;20537;-43
2023/10/03 08:44:51;;;;;;;13.35;2.25;;;17.00;28.00;;;;;;20495278;28;20437;-43
2023/10/03 08:54:55;;;;;;;9.50;1.00;;;16.80;26.50;;;;;;20502579;28;20031;-42
2023/10/03 09:04:56;;;;;;;8.32;1.10;;;16.80;26.60;;;;;;20497603;28;20039;-42
2023/10/03 09:14:57;;;;;;;3.17;0.57;;;16.80;42.70;;;;;;20504831;28;20050;-43
2023/10/03 09:24:57;;;;;;;11.30;1.83;;;16.90;28.20;;;;;;20513186;28;20495;-43
2023/10/03 09:35:09;;;;;;;5.50;0.80;;;16.80;8.80;;;;;;20513857;28;22167;-42
2023/10/03 09:45:16;;;;;;;3.65;0.73;;;16.80;15.40;;;;;;20513319;28;20755;-42
2023/10/03 09:55:21;;;;;;;4.88;1.05;;;16.90;9.80;;;;;;20514934;28;20521;-42
2023/10/03 10:05:27;;;;;;;2.97;0.52;;;17.10;1.00;;;;;;20505279;28;20047;-42
2023/10/03 10:15:29;;;;;;;6.03;1.10;;;16.70;4.90;;;;;;20503450;28;20050;-43
2023/10/03 10:25:43;;;;;;;9.43;1.42;;;16.30;33.50;;;;;;20502287;28;20486;-43
2023/10/03 10:36:00;;;;;;;4.78;1.38;;;16.00;73.00;;;;;;20518700;28;20051;-44
2023/10/03 10:46:32;;;;;;;9.13;2.63;;;15.70;99.90;;;;;;20495576;28;20043;-43
2023/10/03 10:56:33;;;;;;;5.97;1.50;;;15.60;99.90;;;;;;20498462;28;20447;-44
2023/10/03 11:06:34;;;;;;;4.47;1.40;;;15.50;99.90;;;;;;20519211;28;20558;-44
2023/10/03 11:16:34;;;;;;;5.32;1.77;;;15.40;99.90;;;;;;20515475;28;20077;-44
2023/10/03 11:26:51;;;;;;;8.13;2.53;;;15.40;99.90;;;;;;20512160;28;20142;-44
2023/10/03 11:36:52;;;;;;;6.43;1.60;;;15.30;99.90;;;;;;20515379;28;20521;-43
2023/10/03 11:46:53;;;;;;;7.07;2.17;;;15.30;99.90;;;;;;20513279;28;20039;-43
2023/10/03 11:56:56;;;;;;;11.18;1.90;;;15.10;99.90;;;;;;20513751;28;20046;-43
2023/10/03 12:06:57;;;;;;;8.57;2.17;;;15.00;99.90;;;;;;20514384;28;20062;-43
2023/10/03 12:16:59;;;;;;;9.75;2.15;;;15.10;99.90;;;;;;20509607;28;20507;-43
2023/10/03 12:27:04;;;;;;;9.23;2.67;;;15.20;99.90;;;;;;20511413;28;20047;-44
2023/10/03 12:37:11;;;;;;;6.50;2.13;;;15.50;99.90;;;;;;20509879;28;20055;-44
2023/10/03 12:47:12;;;;;;;;;;;15.50;99.90;;;;;;20509604;28;20055;-44
2023/10/03 12:57:13;;;;;;;9.32;1.65;;;15.40;40.30;;;;;;20510630;28;20283;-44
2023/10/03 13:07:16;;;;;;;4.93;1.42;;;14.80;89.30;;;;;;20508790;28;20046;-44
2023/10/03 13:17:18;;;;;;;7.45;1.42;;;14.70;99.90;;;;;;20508802;28;20032;-44
2023/10/03 13:27:19;;;;;;;5.88;1.60;;;14.80;99.90;;;;;;20506975;28;20569;-44
2023/10/03 13:37:21;;;;;;;8.25;2.20;;;15.00;99.90;;;;;;20509700;28;20074;-44
2023/10/03 13:47:21;;;;;;;5.30;1.70;;;16.00;43.00;;;;;;20506386;28;20435;-42
2023/10/03 13:57:23;;;;;;;6.93;1.90;;;16.40;1.00;;;;;;20508189;28;20105;-42
2023/10/03 14:07:24;;;;;;;5.57;1.23;;;16.30;9.40;;;;;;20516202;28;20049;-42
2023/10/03 14:17:24;;;;;;;10.48;2.22;;;15.90;1.00;;;;;;20521809;28;20495;-42
2023/10/03 14:27:25;;;;;;;6.60;1.52;;;15.80;10.60;;;;;;20520487;28;20070;-42
2023/10/03 14:37:27;;;;;;;6.65;1.40;;;16.50;1.00;;;;;;20519510;28;20043;-43
2023/10/03 14:47:28;;;;;;;5.70;1.70;;;16.50;1.00;;;;;;20517446;28;20506;-42
2023/10/03 14:57:29;;;;;;;5.95;1.52;;;16.60;1.00;;;;;;20518184;28;20039;-42
2023/10/03 15:07:30;;;;;;;7.25;1.95;;;16.40;1.00;;;;;;20514528;28;20431;-42
2023/10/03 15:17:35;;;;;;;8.02;1.80;;;16.40;1.00;;;;;;20516695;28;21180;-43
2023/10/03 15:27:35;;;;;;;5.18;1.60;;;16.50;1.00;;;;;;20516667;28;20050;-42
2023/10/03 15:37:37;;;;;;;5.15;2.15;;;16.30;1.00;;;;;;20513866;28;20047;-42
2023/10/03 15:47:38;;;;;;;7.35;1.65;;;16.00;1.00;;;;;;20515503;28;20046;-42
2023/10/03 15:57:39;;;;;;;9.93;1.67;;;15.90;1.00;;;;;;20513593;28;20094;-42
2023/10/03 16:07:39;;;;;;;8.10;1.85;;;15.90;1.00;;;;;;20507221;28;20042;-43
2023/10/03 16:17:40;;;;;;;5.65;1.55;;;15.80;1.00;;;;;;20502252;28;20046;-42
2023/10/03 16:27:42;;;;;;;6.28;1.90;;;15.90;1.00;;;;;;20507654;28;20046;-42
2023/10/03 16:37:44;;;;;;;8.30;1.77;;;15.80;1.00;;;;;;20511145;28;20058;-42
2023/10/03 16:47:47;;;;;;;6.38;1.65;;;15.70;1.00;;;;;;20496182;28;20043;-42
2023/10/03 16:57:48;;;;;;;7.68;1.98;;;15.50;1.00;;;;;;20489555;28;20035;-42
2023/10/03 17:07:48;;;;;;;6.03;1.80;;;15.50;1.00;;;;;;20492121;28;20096;-42
2023/10/03 17:17:53;;;;;;;8.98;2.25;;;15.60;1.00;;;;;;20488494;28;20411;-42
2023/10/03 17:27:54;;;;;;;8.55;2.28;;;15.60;1.00;;;;;;20482547;28;20039;-42
2023/10/03 17:37:56;;;;;;;6.15;2.20;;;15.00;1.00;;;;;;20474675;28;20165;-42
2023/10/03 17:47:57;;;;;;;11.43;2.63;;;14.80;10.60;;;;;;20480971;28;20443;-42
2023/10/03 17:57:58;;;;;;;9.98;3.05;;;14.60;24.10;;;;;;20491674;28;20043;-42
2023/10/03 18:07:59;;;;;;;11.73;5.57;;;14.50;25.50;;;;;;20512540;28;20388;-42
2023/10/03 18:17:59;;;;;;;12.70;4.03;;;14.40;40.70;;;;;;20507868;28;20071;-42
2023/10/03 18:28:00;;;;;;;6.13;2.75;;;14.30;54.90;;;;;;20506576;28;20129;-42
2023/10/03 18:38:00;;;;;;;7.97;2.45;;;14.10;72.40;;;;;;20499395;28;20058;-42
2023/10/03 18:48:01;;;;;;;5.70;1.75;;;14.20;65.70;;;;;;20495274;28;21004;-42
2023/10/03 18:58:01;;;;;;;4.90;1.73;;;14.00;76.20;;;;;;20489192;28;20051;-42
2023/10/03 19:08:03;;;;;;;7.32;2.03;;;13.80;93.70;;;;;;20422009;28;20147;-42
2023/10/03 19:18:07;;;;;;;4.47;1.85;;;13.80;93.50;;;;;;20480217;28;20049;-42
2023/10/03 19:28:08;;;;;;;4.85;1.30;;;13.70;70.60;;;;;;20463818;28;20066;-42
2023/10/03 19:38:10;;;;;;;5.28;1.65;;;13.60;44.70;;;;;;20439371;28;20130;-42
2023/10/03 19:48:11;;;;;;;5.70;1.42;;;13.50;54.00;;;;;;20463570;28;20513;-42
2023/10/03 19:58:11;;;;;;;4.90;1.38;;;13.50;66.20;;;;;;20462127;28;20094;-42
2023/10/03 20:08:14;;;;;;;5.20;1.40;;;13.40;53.50;;;;;;20474138;28;20109;-42
2023/10/03 20:18:14;;;;;;;4.38;1.42;;;13.40;28.50;;;;;;20493266;28;20047;-42
2023/10/03 20:28:15;;;;;;;5.30;1.30;;;13.40;26.40;;;;;;20495694;28;20062;-42
2023/10/03 20:38:15;;;;;;;7.13;1.38;;;13.60;1.00;;;;;;20476066;28;20470;-42
2023/10/03 20:48:16;;;;;;;5.75;1.42;;;13.60;1.00;;;;;;20474595;28;20051;-42
2023/10/03 20:58:17;;;;;;;3.90;1.20;;;13.50;1.00;;;;;;20484123;28;20035;-42
2023/10/03 21:08:18;;;;;;;5.82;1.10;;;13.60;1.00;;;;;;20480953;28;20043;-42
2023/10/03 21:18:19;;;;;;;4.05;1.55;;;13.50;1.00;;;;;;20470127;28;20038;-42
2023/10/03 21:28:19;;;;;;;5.10;1.20;;;13.40;1.00;;;;;;20470204;28;20077;-42
2023/10/03 21:38:20;;;;;;;7.63;1.50;;;13.70;1.00;;;;;;20465091;28;20133;-42
2023/10/03 21:48:20;;;;;;;4.10;0.93;;;13.90;1.00;;;;;;20465100;28;20108;-42
2023/10/03 21:58:21;;;;;;;8.63;1.40;;;13.90;1.00;;;;;;20460279;28;20051;-42
2023/10/03 22:08:22;;;;;;;4.32;1.42;;;13.90;1.00;;;;;;20462111;28;20209;-42
2023/10/03 22:18:22;;;;;;;5.22;1.30;;;14.00;1.00;;;;;;20459225;28;20046;-42
2023/10/03 22:28:23;;;;;;;7.00;1.23;;;14.00;1.00;;;;;;20473138;28;20070;-42
2023/10/03 22:38:23;;;;;;;6.78;1.30;;;14.20;1.00;;;;;;20488675;28;20047;-42
2023/10/03 22:48:24;;;;;;;4.53;0.90;;;14.20;1.00;;;;;;20483889;28;20129;-42
2023/10/03 22:58:25;;;;;;;4.88;1.20;;;14.00;1.00;;;;;;20473886;28;20039;-42
2023/10/03 23:08:25;;;;;;;6.88;1.50;;;13.80;1.00;;;;;;20471935;28;20129;-42
2023/10/03 23:18:26;;;;;;;5.90;1.50;;;13.70;1.00;;;;;;20470157;28;20039;-42
2023/10/03 23:28:27;;;;;;;7.80;1.50;;;13.70;1.00;;;;;;20484571;28;20133;-42
2023/10/03 23:38:35;;;;;;;7.40;1.42;;;13.60;1.00;;;;;;20472436;28;20074;-42
2023/10/03 23:48:36;;;;;;;7.40;1.58;;;13.70;1.00;;;;;;20474600;28;20054;-42
2023/10/03 23:58:37;;;;;;;10.30;1.70;;;13.60;1.00;;;;;;20471254;28;20396;-42
